Time;durP1;ratioP1;P1;durP2;ratioP2;P2;SDS_P1;SDS_P2;PMS_P1;PMS_P2;Temp;Humidity;BMP_temperature;BMP_pressure;BME280_temperature;BME280_humidity;BME280_pressure;Samples;Min_cycle;Max_cycle;Signal;HPM_P1;HPM_P2
2021/05/02 00:01:48;;;;;;;3.22;1.90;;;;;;;6.47;100.00;101490.72;3572061;40;20049;-61
2021/05/02 00:04:14;;;;;;;4.53;2.05;;;;;;;6.53;100.00;101489.50;3571966;40;20048;-59
2021/05/02 00:06:41;;;;;;;7.80;2.20;;;;;;;6.54;100.00;101485.88;3572172;40;20057;-62
2021/05/02 00:09:07;;;;;;;6.70;1.70;;;;;;;6.63;100.00;101496.00;3572348;40;20070;-62
2021/05/02 00:11:33;;;;;;;4.90;2.10;;;;;;;6.60;100.00;101490.84;3572079;40;20053;-59
2021/05/02 00:14:01;;;;;;;5.90;2.17;;;;;;;6.57;100.00;101496.38;3571853;40;20368;-60
2021/05/02 00:16:27;;;;;;;7.35;2.15;;;;;;;6.55;100.00;101490.28;3572142;40;20030;-60
2021/05/02 00:18:54;;;;;;;7.95;2.30;;;;;;;6.58;100.00;101490.09;3572121;40;20490;-59
2021/05/02 00:21:20;;;;;;;5.18;2.00;;;;;;;6.51;100.00;101491.41;3571092;40;20077;-59
2021/05/02 00:23:47;;;;;;;8.32;2.25;;;;;;;6.48;100.00;101495.13;3572101;40;20396;-60
2021/05/02 00:26:13;;;;;;;6.43;2.10;;;;;;;6.53;100.00;101499.34;3571743;40;20045;-62
2021/05/02 00:28:44;;;;;;;5.85;1.90;;;;;;;6.45;100.00;101498.00;3571881;40;20374;-58
2021/05/02 00:31:12;;;;;;;7.18;2.22;;;;;;;6.32;100.00;101497.88;3571864;40;20103;-60
2021/05/02 00:33:40;;;;;;;4.00;1.65;;;;;;;6.37;100.00;101500.25;3572549;40;20057;-59
2021/05/02 00:36:08;;;;;;;4.60;1.80;;;;;;;6.27;100.00;101502.66;3571181;40;20041;-58
2021/05/02 00:38:36;;;;;;;3.67;1.80;;;;;;;6.22;100.00;101495.88;3570985;40;20049;-59
2021/05/02 00:41:06;;;;;;;4.22;1.70;;;;;;;6.21;100.00;101502.16;3571991;40;20380;-59
2021/05/02 00:43:36;;;;;;;5.35;1.98;;;;;;;6.24;100.00;101505.50;3572581;40;20045;-58
2021/05/02 00:46:10;;;;;;;4.00;1.80;;;;;;;6.27;100.00;101499.09;3571792;40;20072;-57
2021/05/02 00:48:49;;;;;;;2.85;1.50;;;;;;;6.27;100.00;101509.78;3572193;40;20150;-60
2021/05/02 00:51:17;;;;;;;5.75;1.92;;;;;;;6.26;100.00;101500.94;3571139;40;20071;-58
2021/05/02 00:54:01;;;;;;;4.63;1.65;;;;;;;6.20;100.00;101501.31;3571957;40;20037;-58
2021/05/02 00:56:31;;;;;;;7.10;2.45;;;;;;;6.13;100.00;101502.63;3571374;40;20054;-58
2021/05/02 00:59:02;;;;;;;3.60;2.10;;;;;;;6.15;100.00;101498.03;3572126;40;20163;-58
2021/05/02 01:01:31;;;;;;;8.27;1.92;;;;;;;6.13;100.00;101502.63;3571752;40;20053;-59
2021/05/02 01:03:59;;;;;;;9.68;2.45;;;;;;;6.10;100.00;101498.31;3571881;40;20410;-59
2021/05/02 01:06:30;;;;;;;8.15;2.70;;;;;;;6.10;100.00;101500.13;3572020;40;20053;-60
2021/05/02 01:08:59;;;;;;;5.85;2.05;;;;;;;6.00;100.00;101501.63;3572753;40;20093;-59
2021/05/02 01:11:26;;;;;;;4.43;2.10;;;;;;;5.97;100.00;101497.31;3571560;40;20093;-60
2021/05/02 01:13:54;;;;;;;8.50;1.98;;;;;;;5.95;100.00;101505.38;3571864;40;20399;-60
2021/05/02 01:16:23;;;;;;;7.88;2.47;;;;;;;5.93;100.00;101503.75;3571774;40;20049;-59
2021/05/02 01:18:50;;;;;;;4.95;1.88;;;;;;;5.87;100.00;101507.63;3571991;40;20045;-59
2021/05/02 01:21:18;;;;;;;6.50;2.30;;;;;;;5.74;100.00;101502.19;3571627;40;20085;-60
2021/05/02 01:23:47;;;;;;;4.95;2.15;;;;;;;5.70;100.00;101502.44;3570510;40;20057;-59
2021/05/02 01:26:17;;;;;;;6.18;1.98;;;;;;;5.70;100.00;101497.09;3571942;40;20150;-59
2021/05/02 01:28:43;;;;;;;5.22;2.40;;;;;;;5.59;100.00;101503.94;3571537;40;20037;-60
2021/05/02 01:31:10;;;;;;;5.82;2.63;;;;;;;5.53;100.00;101508.75;3571226;40;20041;-59
2021/05/02 01:33:37;;;;;;;7.18;2.30;;;;;;;5.43;100.00;101503.94;3571423;40;20037;-59
2021/05/02 01:36:03;;;;;;;7.03;2.13;;;;;;;5.36;100.00;101509.69;3571797;40;20049;-58
2021/05/02 01:38:30;;;;;;;5.28;2.33;;;;;;;5.49;100.00;101507.19;3571156;40;20062;-60
2021/05/02 01:40:59;;;;;;;6.82;2.42;;;;;;;5.58;100.00;101507.53;3571555;40;20057;-60
2021/05/02 01:43:25;;;;;;;5.65;2.40;;;;;;;5.58;100.00;101506.66;3571323;40;20062;-61
2021/05/02 01:45:51;;;;;;;5.88;2.72;;;;;;;5.57;100.00;101505.81;3571623;40;20332;-57
2021/05/02 01:48:18;;;;;;;6.28;2.40;;;;;;;5.68;100.00;101509.66;3571350;40;20034;-57
2021/05/02 01:50:46;;;;;;;7.38;2.42;;;;;;;5.69;100.00;101514.91;3571045;40;20077;-58
2021/05/02 01:53:13;;;;;;;6.68;2.75;;;;;;;5.76;100.00;101510.09;3570859;40;20060;-58
2021/05/02 01:55:40;;;;;;;5.68;2.17;;;;;;;5.78;100.00;101510.84;3572142;40;20051;-58
2021/05/02 01:58:09;;;;;;;6.38;2.10;;;;;;;5.86;100.00;101510.41;3571431;40;20052;-60
2021/05/02 02:00:41;;;;;;;4.20;2.37;;;;;;;6.09;100.00;101506.41;3570968;40;20039;-59
2021/05/02 02:03:08;;;;;;;4.35;2.03;;;;;;;6.09;100.00;101501.06;3571434;40;20301;-59
2021/05/02 02:05:35;;;;;;;8.32;2.20;;;;;;;6.14;100.00;101507.03;3571501;40;20061;-59
2021/05/02 02:08:02;;;;;;;6.93;2.42;;;;;;;6.03;100.00;101504.13;3570468;40;20100;-58
2021/05/02 02:10:30;;;;;;;7.40;2.20;;;;;;;6.09;100.00;101501.06;3570689;40;20504;-59
2021/05/02 02:12:56;;;;;;;9.82;2.22;;;;;;;6.11;100.00;101516.06;3571179;40;20064;-59
2021/05/02 02:15:26;;;;;;;9.57;2.75;;;;;;;6.09;100.00;101507.25;3571279;40;20062;-61
2021/05/02 02:17:53;;;;;;;6.32;2.70;;;;;;;6.08;100.00;101515.38;3571025;40;20045;-59
2021/05/02 02:20:19;;;;;;;9.88;2.50;;;;;;;6.11;100.00;101518.75;3571600;40;20142;-60
2021/05/02 02:22:45;;;;;;;7.78;2.78;;;;;;;6.08;100.00;101520.72;3571294;40;20164;-59
2021/05/02 02:25:12;;;;;;;7.32;2.65;;;;;;;6.09;100.00;101517.09;3571257;40;20651;-58
2021/05/02 02:27:39;;;;;;;9.73;3.25;;;;;;;6.03;100.00;101523.66;3571214;40;20053;-58
2021/05/02 02:30:07;;;;;;;4.75;3.00;;;;;;;6.04;100.00;101527.22;3571094;40;20053;-60
2021/05/02 02:32:35;;;;;;;8.15;3.30;;;;;;;6.03;100.00;101528.16;3571225;40;20048;-61
2021/05/02 02:35:05;;;;;;;5.68;2.80;;;;;;;6.00;100.00;101523.84;3571244;40;20049;-59
2021/05/02 02:37:31;;;;;;;9.32;3.47;;;;;;;5.96;100.00;101523.16;3571505;40;20044;-59
2021/05/02 02:42:25;;;;;;;4.97;2.97;;;;;;;5.96;100.00;101527.63;3595419;23;20543;-59
2021/05/02 02:44:54;;;;;;;8.57;2.90;;;;;;;5.90;100.00;101520.84;3570898;40;20061;-59
2021/05/02 02:47:22;;;;;;;8.65;3.38;;;;;;;5.85;100.00;101522.91;3571531;40;20060;-59
2021/05/02 02:49:50;;;;;;;6.50;3.40;;;;;;;5.64;100.00;101518.78;3571015;40;20049;-58
2021/05/02 02:52:19;;;;;;;7.83;3.23;;;;;;;5.60;100.00;101521.66;3571310;40;20141;-61
2021/05/02 02:54:48;;;;;;;9.73;3.20;;;;;;;5.61;100.00;101514.50;3571487;40;20077;-59
2021/05/02 02:57:20;;;;;;;5.55;2.92;;;;;;;5.58;100.00;101528.00;3570219;40;20047;-59
2021/05/02 02:59:48;;;;;;;5.88;2.80;;;;;;;5.60;100.00;101524.31;3571866;40;20049;-60
2021/05/02 03:02:17;;;;;;;6.35;2.90;;;;;;;5.66;100.00;101527.59;3623613;23;20063;-58
2021/05/02 03:04:46;;;;;;;;;;;;;;;5.74;100.00;101528.00;3560774;40;20054;-58
2021/05/02 03:07:13;;;;;;;7.50;2.72;;;;;;;5.69;100.00;101530.09;3560713;40;19940;-58
2021/05/02 03:09:41;;;;;;;6.10;3.28;;;;;;;5.59;100.00;101530.63;3561173;40;20298;-59
2021/05/02 03:12:10;;;;;;;6.80;3.03;;;;;;;5.69;100.00;101532.75;3560227;40;20036;-59
2021/05/02 03:14:36;;;;;;;7.95;3.45;;;;;;;5.60;100.00;101529.66;3561065;40;20081;-59
2021/05/02 03:17:04;;;;;;;9.40;3.60;;;;;;;5.59;100.00;101538.63;3560406;40;20066;-60
2021/05/02 03:19:34;;;;;;;8.60;3.67;;;;;;;5.62;100.00;101534.91;3560886;40;20072;-59
2021/05/02 03:22:06;;;;;;;6.93;3.53;;;;;;;5.58;100.00;101536.91;3560725;40;20409;-58
2021/05/02 03:24:35;;;;;;;7.72;3.45;;;;;;;5.67;100.00;101534.63;3561327;40;20304;-60
2021/05/02 03:27:04;;;;;;;6.72;3.10;;;;;;;5.67;100.00;101537.31;3562894;40;20056;-59
2021/05/02 03:29:37;;;;;;;8.77;3.28;;;;;;;5.67;100.00;101542.66;3562919;40;20143;-60
2021/05/02 03:32:06;;;;;;;6.45;3.38;;;;;;;5.68;100.00;101539.91;3562557;40;20377;-60
2021/05/02 03:37:26;;;;;;;11.88;4.18;;;;;;;5.61;100.00;101552.75;3596553;22;20138;-59
2021/05/02 03:39:52;;;;;;;11.45;3.90;;;;;;;5.61;100.00;101554.56;3573022;40;20055;-61
2021/05/02 03:42:19;;;;;;;10.68;4.10;;;;;;;5.53;100.00;101557.66;3571823;40;20075;-59
2021/05/02 03:44:45;;;;;;;7.97;4.00;;;;;;;5.47;100.00;101552.66;3572908;40;20045;-60
2021/05/02 03:47:11;;;;;;;9.23;4.15;;;;;;;5.38;100.00;101558.53;3572324;40;20130;-60
2021/05/02 03:49:39;;;;;;;6.53;4.03;;;;;;;5.36;100.00;101560.41;3572038;40;20068;-60
2021/05/02 03:52:05;;;;;;;7.93;4.07;;;;;;;5.30;100.00;101563.41;3572389;40;20112;-59
2021/05/02 03:54:31;;;;;;;7.70;3.92;;;;;;;5.33;100.00;101573.91;3572250;40;20739;-59
2021/05/02 03:56:58;;;;;;;7.07;3.53;;;;;;;5.37;100.00;101573.66;3572454;40;20049;-59
2021/05/02 03:59:26;;;;;;;12.85;3.97;;;;;;;5.41;100.00;101574.38;3572397;40;20049;-59
2021/05/02 04:01:53;;;;;;;8.20;3.88;;;;;;;5.45;100.00;101573.25;3572098;40;20083;-61
2021/05/02 04:04:22;;;;;;;7.35;3.83;;;;;;;5.49;100.00;101577.50;3572662;40;20126;-58
2021/05/02 04:06:49;;;;;;;7.88;3.50;;;;;;;5.50;100.00;101573.84;3572075;40;20068;-58
2021/05/02 04:09:16;;;;;;;12.15;3.85;;;;;;;5.50;100.00;101581.84;3572060;40;20092;-59
2021/05/02 04:11:43;;;;;;;9.65;3.80;;;;;;;5.48;100.00;101578.41;3572660;40;20401;-61
2021/05/02 04:14:12;;;;;;;6.32;3.30;;;;;;;5.44;100.00;101582.19;3571736;40;20122;-60
2021/05/02 04:16:38;;;;;;;10.93;3.30;;;;;;;5.47;100.00;101582.03;3572285;40;20048;-59
2021/05/02 04:19:06;;;;;;;8.38;3.17;;;;;;;5.51;100.00;101586.25;3572264;40;20275;-59
2021/05/02 04:21:34;;;;;;;10.18;3.70;;;;;;;5.43;100.00;101584.03;3571096;40;20044;-59
2021/05/02 04:24:00;;;;;;;7.20;3.72;;;;;;;5.30;100.00;101582.97;3568047;40;20045;-60
2021/05/02 04:26:26;;;;;;;10.70;3.83;;;;;;;5.35;100.00;101585.41;3572434;40;20047;-61
2021/05/02 04:28:52;;;;;;;8.55;3.55;;;;;;;5.30;100.00;101592.78;3572061;40;20400;-59
2021/05/02 04:31:19;;;;;;;7.85;4.30;;;;;;;5.29;100.00;101591.94;3572149;40;20053;-59
2021/05/02 04:33:46;;;;;;;10.48;3.58;;;;;;;5.31;100.00;101592.69;3571555;40;20093;-59
2021/05/02 04:36:12;;;;;;;8.63;3.47;;;;;;;5.45;100.00;101602.63;3575102;40;20041;-60
2021/05/02 04:38:38;;;;;;;9.02;3.75;;;;;;;5.56;100.00;101602.03;3582253;40;20056;-59
2021/05/02 04:41:04;;;;;;;8.88;4.00;;;;;;;5.59;100.00;101604.53;3581049;40;20041;-61
2021/05/02 04:43:31;;;;;;;7.40;3.97;;;;;;;5.59;100.00;101610.75;3578269;40;20049;-62
2021/05/02 04:45:57;;;;;;;5.88;3.88;;;;;;;5.60;100.00;101607.09;3580764;40;20053;-59
2021/05/02 04:48:24;;;;;;;7.38;3.60;;;;;;;5.57;100.00;101617.97;3582498;40;20063;-60
2021/05/02 04:50:50;;;;;;;6.13;3.92;;;;;;;5.56;100.00;101610.88;3581288;40;20096;-59
2021/05/02 04:53:16;;;;;;;5.97;3.63;;;;;;;5.52;100.00;101614.69;3580864;40;20040;-60
2021/05/02 04:55:42;;;;;;;8.40;3.78;;;;;;;5.47;100.00;101611.41;3581538;40;20466;-61
2021/05/02 04:58:08;;;;;;;8.90;3.67;;;;;;;5.50;100.00;101615.72;3581503;40;20045;-58
2021/05/02 05:00:34;;;;;;;9.50;4.70;;;;;;;5.42;100.00;101619.66;3581094;40;20044;-60
2021/05/02 05:03:02;;;;;;;11.38;5.18;;;;;;;5.37;100.00;101631.53;3581766;40;20116;-61
2021/05/02 05:05:29;;;;;;;12.80;4.80;;;;;;;5.33;100.00;101635.31;3581766;40;20178;-59
2021/05/02 05:07:55;;;;;;;11.10;4.45;;;;;;;5.39;100.00;101635.00;3582287;40;20051;-59
2021/05/02 05:10:21;;;;;;;9.23;4.40;;;;;;;5.39;100.00;101635.00;3581428;40;20032;-60
2021/05/02 05:12:46;;;;;;;8.82;4.30;;;;;;;5.42;100.00;101642.84;3580262;40;20060;-60
2021/05/02 05:15:13;;;;;;;10.30;4.40;;;;;;;5.40;100.00;101634.03;3577454;40;20060;-59
2021/05/02 05:17:39;;;;;;;13.23;4.40;;;;;;;5.50;100.00;101645.94;3581882;40;20117;-58
2021/05/02 05:20:07;;;;;;;11.30;4.22;;;;;;;5.55;100.00;101646.56;3580767;40;20295;-60
2021/05/02 05:22:34;;;;;;;7.82;3.92;;;;;;;5.60;100.00;101647.16;3581553;40;20045;-59
2021/05/02 05:25:00;;;;;;;6.90;3.85;;;;;;;5.66;100.00;101658.47;3581439;40;20049;-59
2021/05/02 05:27:27;;;;;;;7.10;3.83;;;;;;;5.69;100.00;101650.28;3581672;40;20049;-61
2021/05/02 05:29:53;;;;;;;6.93;3.55;;;;;;;5.68;100.00;101651.22;3581810;40;20074;-60
2021/05/02 05:32:19;;;;;;;8.85;3.53;;;;;;;5.69;100.00;101653.81;3581180;40;20052;-59
2021/05/02 05:37:29;;;;;;;8.13;3.45;;;;;;;5.77;100.00;101656.94;3611767;23;20056;-60
2021/05/02 05:39:56;;;;;;;4.28;2.40;;;;;;;5.87;100.00;101661.75;3572248;40;20065;-59
2021/05/02 05:42:22;;;;;;;7.97;2.10;;;;;;;5.96;100.00;101662.09;3571667;40;20033;-59
2021/05/02 05:44:48;;;;;;;10.85;2.65;;;;;;;6.09;100.00;101661.44;3567104;40;20416;-59
2021/05/02 05:47:14;;;;;;;7.15;2.67;;;;;;;6.16;100.00;101662.81;3571162;40;20357;-60
2021/05/02 05:53:05;;;;;;;4.82;2.08;;;;;;;6.50;100.00;101668.88;3550084;40;20056;-60
2021/05/02 05:55:32;;;;;;;5.28;2.45;;;;;;;6.58;100.00;101669.28;3551600;40;20042;-59
2021/05/02 05:57:58;;;;;;;5.07;2.00;;;;;;;6.68;100.00;101668.75;3552219;40;20052;-60
2021/05/02 06:00:24;;;;;;;7.40;2.10;;;;;;;6.67;100.00;101673.25;3551905;40;20061;-59
2021/05/02 06:02:50;;;;;;;4.20;2.00;;;;;;;6.71;100.00;101676.59;3551515;40;20395;-59
2021/05/02 06:05:17;;;;;;;7.45;2.22;;;;;;;6.87;100.00;101680.06;3551414;40;20075;-59
2021/05/02 06:07:44;;;;;;;5.80;2.00;;;;;;;7.06;100.00;101690.53;3551834;40;20042;-59
2021/05/02 06:10:11;;;;;;;5.38;2.35;;;;;;;7.35;100.00;101680.72;3551076;40;20058;-58
2021/05/02 06:12:37;;;;;;;3.78;2.00;;;;;;;7.58;100.00;101697.16;3551901;40;20344;-58
2021/05/02 06:15:05;;;;;;;3.22;1.70;;;;;;;7.89;100.00;101684.50;3551491;40;20054;-59
2021/05/02 06:17:31;;;;;;;5.03;1.90;;;;;;;8.01;100.00;101683.72;3551928;40;20412;-61
2021/05/02 06:19:58;;;;;;;5.30;2.10;;;;;;;8.22;100.00;101685.97;3551430;40;20073;-61
2021/05/02 06:22:24;;;;;;;5.50;2.13;;;;;;;8.32;100.00;101681.72;3551906;40;20059;-61
2021/05/02 06:24:50;;;;;;;6.10;1.67;;;;;;;8.48;100.00;101691.44;3551582;40;20090;-60
2021/05/02 06:27:16;;;;;;;5.47;2.08;;;;;;;8.34;100.00;101684.28;3551941;40;20052;-59
2021/05/02 06:29:43;;;;;;;4.15;1.90;;;;;;;8.18;100.00;101695.16;3551504;40;20407;-59
2021/05/02 06:32:09;;;;;;;9.45;2.13;;;;;;;7.99;100.00;101701.72;3551042;40;20054;-59
2021/05/02 06:34:35;;;;;;;5.35;2.10;;;;;;;7.57;100.00;101706.16;3551404;40;20475;-59
2021/05/02 06:37:01;;;;;;;5.63;1.90;;;;;;;7.67;100.00;101698.41;3551462;40;20095;-59
2021/05/02 06:39:28;;;;;;;3.22;1.92;;;;;;;7.67;100.00;101707.31;3551254;40;20038;-59
2021/05/02 06:41:54;;;;;;;5.47;1.55;;;;;;;7.44;100.00;101710.56;3551441;40;20081;-59
2021/05/02 06:44:21;;;;;;;4.32;1.60;;;;;;;7.44;100.00;101713.25;3551448;40;21629;-59
2021/05/02 06:46:48;;;;;;;5.72;1.80;;;;;;;7.51;100.00;101715.44;3550906;40;20052;-59
2021/05/02 06:49:14;;;;;;;6.18;1.80;;;;;;;7.38;100.00;101711.81;3550461;40;20049;-58
2021/05/02 06:51:41;;;;;;;3.65;1.75;;;;;;;7.54;100.00;101711.72;3550635;40;20060;-59
2021/05/02 06:54:09;;;;;;;3.88;1.70;;;;;;;7.63;100.00;101711.13;3551392;40;20048;-62
2021/05/02 06:56:36;;;;;;;5.22;1.70;;;;;;;7.62;100.00;101722.81;3550910;40;20402;-59
2021/05/02 06:59:03;;;;;;;5.78;1.70;;;;;;;7.74;100.00;101714.97;3551083;40;20072;-58
2021/05/02 07:01:29;;;;;;;4.90;1.45;;;;;;;7.75;100.00;101714.00;3551934;40;20127;-60
2021/05/02 07:03:56;;;;;;;7.32;1.75;;;;;;;7.89;100.00;101719.34;3551784;40;20426;-59
2021/05/02 07:06:22;;;;;;;5.85;1.67;;;;;;;8.23;100.00;101717.19;3551205;40;20171;-59
2021/05/02 07:11:20;;;;;;;3.10;1.30;;;;;;;8.18;100.00;101717.47;3642643;23;20049;-59
2021/05/02 07:13:46;;;;;;;4.18;1.63;;;;;;;7.92;100.00;101721.84;3582016;40;20086;-59
2021/05/02 07:16:12;;;;;;;2.63;1.38;;;;;;;7.88;100.00;101731.88;3580757;40;20049;-62
2021/05/02 07:18:39;;;;;;;3.67;1.42;;;;;;;8.25;100.00;101723.31;3581504;40;20052;-62
2021/05/02 07:21:07;;;;;;;7.00;1.80;;;;;;;8.35;100.00;101723.59;3580455;40;20045;-60
2021/05/02 07:23:36;;;;;;;5.35;1.70;;;;;;;8.29;100.00;101727.53;3580147;40;20038;-59
2021/05/02 07:26:02;;;;;;;3.92;1.45;;;;;;;8.69;100.00;101724.91;3580888;40;20061;-60
2021/05/02 07:28:28;;;;;;;4.82;1.45;;;;;;;9.04;100.00;101723.47;3580637;40;20142;-60
2021/05/02 07:30:54;;;;;;;6.97;1.85;;;;;;;9.12;100.00;101724.69;3580854;40;20045;-60
2021/05/02 07:33:22;;;;;;;2.08;1.30;;;;;;;8.96;100.00;101732.06;3581298;40;20413;-60
2021/05/02 07:35:49;;;;;;;4.13;1.75;;;;;;;8.92;100.00;101730.53;3580720;40;20315;-61
2021/05/02 07:38:16;;;;;;;2.55;1.30;;;;;;;8.91;100.00;101736.91;3581183;40;20489;-60
2021/05/02 07:40:43;;;;;;;4.97;1.73;;;;;;;8.84;100.00;101731.06;3580583;40;20051;-60
2021/05/02 07:43:09;;;;;;;3.08;1.20;;;;;;;8.69;100.00;101738.34;3581050;40;20052;-60
2021/05/02 07:45:35;;;;;;;2.85;1.20;;;;;;;8.73;100.00;101730.91;3581041;40;20384;-59
2021/05/02 07:48:01;;;;;;;2.70;1.48;;;;;;;9.01;100.00;101735.31;3580819;40;21308;-61
2021/05/02 07:50:27;;;;;;;6.40;1.67;;;;;;;9.17;100.00;101742.31;3581063;40;20127;-60
2021/05/02 07:52:53;;;;;;;5.05;1.60;;;;;;;8.65;100.00;101744.00;3581141;40;20311;-62
2021/05/02 07:55:19;;;;;;;5.00;1.75;;;;;;;8.66;100.00;101743.06;3580944;40;20057;-60
2021/05/02 07:57:45;;;;;;;4.78;1.65;;;;;;;8.67;100.00;101750.13;3580333;40;20558;-61
2021/05/02 08:00:13;;;;;;;2.35;1.50;;;;;;;8.54;100.00;101750.94;3581073;40;20065;-59
2021/05/02 08:02:41;;;;;;;3.22;1.70;;;;;;;8.86;100.00;101755.13;3580969;40;20043;-60
2021/05/02 08:05:08;;;;;;;5.18;1.48;;;;;;;9.38;100.00;101754.25;3581192;40;20049;-59
2021/05/02 08:07:35;;;;;;;2.55;1.52;;;;;;;9.97;100.00;101747.47;3581364;40;20061;-60
2021/05/02 08:10:01;;;;;;;2.78;1.40;;;;;;;10.32;100.00;101746.72;3582952;40;20056;-60
2021/05/02 08:12:28;;;;;;;3.10;1.70;;;;;;;9.67;100.00;101755.88;3582933;40;20290;-62
2021/05/02 08:14:54;;;;;;;5.20;1.38;;;;;;;9.52;100.00;101752.44;3583065;40;20041;-61
2021/05/02 08:17:20;;;;;;;3.33;1.55;;;;;;;9.33;100.00;101747.50;3582715;40;20053;-60
2021/05/02 08:19:46;;;;;;;5.15;1.83;;;;;;;9.42;100.00;101747.72;3581950;40;20084;-61
2021/05/02 08:22:12;;;;;;;3.10;1.30;;;;;;;9.69;100.00;101749.44;3582157;40;20070;-60
2021/05/02 08:24:38;;;;;;;2.67;1.42;;;;;;;9.68;100.00;101753.06;3582037;40;20049;-60
2021/05/02 08:27:04;;;;;;;4.80;1.33;;;;;;;9.28;100.00;101756.72;3582456;40;20488;-59
2021/05/02 08:29:30;;;;;;;3.38;1.60;;;;;;;9.56;100.00;101754.81;3582464;40;20118;-60
2021/05/02 08:31:56;;;;;;;3.50;1.55;;;;;;;9.91;100.00;101747.88;3581888;40;20074;-59
2021/05/02 08:34:23;;;;;;;3.38;1.60;;;;;;;9.27;100.00;101759.50;3582265;40;20096;-58
2021/05/02 08:36:48;;;;;;;4.85;1.52;;;;;;;9.69;100.00;101759.31;3581859;40;20060;-59
2021/05/02 08:39:14;;;;;;;3.30;1.30;;;;;;;10.00;99.38;101756.16;3582402;40;20393;-60
2021/05/02 08:41:41;;;;;;;3.08;1.23;;;;;;;10.25;92.38;101765.16;3582342;40;20084;-60
2021/05/02 08:44:08;;;;;;;2.92;1.50;;;;;;;10.57;100.00;101766.47;3582256;40;20049;-62
2021/05/02 08:46:35;;;;;;;4.95;1.90;;;;;;;10.50;98.95;101758.84;3582603;40;20044;-60
2021/05/02 08:49:04;;;;;;;4.07;1.42;;;;;;;10.15;100.00;101773.03;3581900;40;20033;-62
2021/05/02 08:51:30;;;;;;;4.70;1.40;;;;;;;10.86;94.87;101758.91;3582291;40;20056;-59
2021/05/02 08:53:56;;;;;;;3.65;1.48;;;;;;;11.05;88.26;101755.69;3582280;40;20049;-59
2021/05/02 08:56:23;;;;;;;3.22;1.40;;;;;;;11.37;89.14;101765.81;3581951;40;20056;-60
2021/05/02 08:58:49;;;;;;;4.57;1.73;;;;;;;10.78;87.27;101764.88;3582393;40;20056;-59
2021/05/02 09:01:15;;;;;;;4.05;1.60;;;;;;;9.99;92.12;101769.72;3581873;40;20474;-62
2021/05/02 09:03:44;;;;;;;5.60;1.45;;;;;;;9.64;91.34;101771.25;3582327;40;20053;-59
2021/05/02 09:06:18;;;;;;;4.93;1.30;;;;;;;9.52;93.84;101780.16;3581048;40;20100;-59
2021/05/02 09:08:45;;;;;;;3.78;1.52;;;;;;;9.30;100.00;101770.03;3581994;40;20428;-63
2021/05/02 09:11:12;;;;;;;5.18;1.50;;;;;;;9.44;100.00;101778.03;3581628;40;20064;-60
2021/05/02 09:13:50;;;;;;;5.00;2.10;;;;;;;10.02;100.00;101774.03;3581905;40;20055;-60
2021/05/02 09:16:18;;;;;;;2.78;1.40;;;;;;;10.48;100.00;101776.97;3581894;40;20053;-61
2021/05/02 09:18:49;;;;;;;5.65;1.80;;;;;;;9.96;100.00;101778.00;3582262;40;20092;-59
2021/05/02 09:21:17;;;;;;;3.50;1.42;;;;;;;9.74;100.00;101779.53;3580823;40;20151;-60
2021/05/02 09:23:45;;;;;;;2.65;1.60;;;;;;;9.88;100.00;101781.25;3582433;40;20285;-59
2021/05/02 09:26:22;;;;;;;3.83;1.45;;;;;;;10.26;99.93;101783.03;3581689;40;20033;-58
2021/05/02 09:28:50;;;;;;;2.38;1.23;;;;;;;10.78;93.20;101778.34;3581992;40;20037;-61
2021/05/02 09:31:18;;;;;;;1.50;1.15;;;;;;;10.57;90.17;101788.88;3582098;40;20121;-59
2021/05/02 09:33:45;;;;;;;2.25;1.23;;;;;;;10.55;89.20;101776.50;3582542;40;20096;-59
2021/05/02 09:36:13;;;;;;;1.77;1.10;;;;;;;10.69;89.35;101781.72;3581730;40;20393;-61
2021/05/02 09:38:39;;;;;;;2.50;1.13;;;;;;;11.01;85.08;101781.13;3582159;40;20037;-61
2021/05/02 09:41:08;;;;;;;4.90;1.20;;;;;;;11.02;82.99;101782.84;3581646;40;20311;-59
2021/05/02 09:43:39;;;;;;;4.78;1.38;;;;;;;11.45;83.88;101784.09;3581941;40;20061;-60
2021/05/02 09:46:24;;;;;;;4.03;1.30;;;;;;;11.40;81.83;101781.75;3581734;40;20063;-59
2021/05/02 09:48:56;;;;;;;2.42;1.20;;;;;;;11.24;79.04;101783.91;3581528;40;21638;-59
2021/05/02 09:51:24;;;;;;;2.33;1.40;;;;;;;10.87;78.29;101784.88;3582000;40;20351;-59
2021/05/02 09:54:08;;;;;;;4.28;1.25;;;;;;;10.91;81.74;101780.09;3582197;40;20040;-59
2021/05/02 09:56:37;;;;;;;3.17;1.45;;;;;;;10.75;84.15;101791.16;3581232;40;20411;-59
2021/05/02 09:59:04;;;;;;;7.55;1.60;;;;;;;10.55;85.62;101795.34;3581121;40;20053;-60
2021/05/02 10:01:30;;;;;;;2.95;1.50;;;;;;;10.08;90.86;101790.56;3581616;40;20041;-58
2021/05/02 10:04:00;;;;;;;2.70;1.48;;;;;;;10.82;92.50;101793.31;3582219;40;20045;-61
2021/05/02 10:06:34;;;;;;;3.70;1.40;;;;;;;11.01;88.56;101791.91;3581213;40;20044;-59
2021/05/02 10:09:01;;;;;;;4.47;1.48;;;;;;;11.19;90.82;101787.81;3582207;40;20057;-60
2021/05/02 10:11:27;;;;;;;2.33;1.30;;;;;;;10.96;84.23;101788.72;3582001;40;20055;-60
2021/05/02 10:13:54;;;;;;;2.45;1.40;;;;;;;10.94;82.02;101788.81;3582407;40;20049;-59
2021/05/02 10:16:20;;;;;;;3.05;1.30;;;;;;;10.87;85.85;101791.09;3581894;40;20053;-59
2021/05/02 10:18:46;;;;;;;3.60;1.33;;;;;;;11.37;85.48;101792.78;3581534;40;20069;-61
2021/05/02 10:21:14;;;;;;;2.45;1.20;;;;;;;12.05;82.34;101795.59;3581331;40;20505;-60
2021/05/02 10:23:42;;;;;;;5.23;1.53;;;;;;;12.18;78.96;101798.16;3582130;40;20278;-60
2021/05/02 10:26:08;;;;;;;2.20;1.40;;;;;;;12.12;79.83;101798.63;3581302;40;20048;-61
2021/05/02 10:28:36;;;;;;;2.53;1.20;;;;;;;11.83;78.49;101789.16;3582320;40;20044;-60
2021/05/02 10:31:04;;;;;;;2.15;1.33;;;;;;;12.04;80.26;101796.56;3581736;40;20077;-61
2021/05/02 10:33:33;;;;;;;3.00;1.38;;;;;;;11.17;83.93;101792.47;3581062;40;20418;-60
2021/05/02 10:36:02;;;;;;;3.83;1.40;;;;;;;11.88;81.20;101791.50;3578129;40;20049;-60
2021/05/02 10:38:48;;;;;;;3.38;1.65;;;;;;;11.74;79.78;101795.28;3581751;40;20133;-60
2021/05/02 10:41:26;;;;;;;5.07;1.60;;;;;;;11.22;83.51;101787.59;3581015;40;20419;-63
2021/05/02 10:43:52;;;;;;;4.07;1.50;;;;;;;10.90;82.86;101797.25;3581221;40;20138;-61
2021/05/02 10:46:49;;;;;;;2.88;1.25;;;;;;;10.95;81.26;101795.91;3580388;40;20044;-62
2021/05/02 10:49:56;;;;;;;4.07;1.40;;;;;;;11.08;81.27;101790.47;3581416;40;20056;-60
2021/05/02 10:52:32;;;;;;;2.78;1.38;;;;;;;11.96;78.92;101793.63;3580520;40;20052;-62
2021/05/02 10:55:14;;;;;;;2.63;1.38;;;;;;;11.33;79.95;101785.91;3580594;40;20044;-59
2021/05/02 10:57:41;;;;;;;2.90;1.63;;;;;;;11.20;81.24;101800.31;3580565;40;20390;-60
2021/05/02 11:00:09;;;;;;;2.30;1.40;;;;;;;11.19;78.12;101795.91;3581262;40;20115;-60
2021/05/02 11:02:38;;;;;;;2.80;1.30;;;;;;;11.58;74.10;101795.63;3581579;40;20060;-62
2021/05/02 11:05:06;;;;;;;2.80;1.48;;;;;;;11.64;70.20;101797.00;3580962;40;20053;-60
2021/05/02 11:07:37;;;;;;;2.15;1.17;;;;;;;11.55;70.42;101799.41;3580559;40;20125;-59
2021/05/02 11:10:06;;;;;;;2.95;1.10;;;;;;;11.89;70.12;101802.16;3581302;40;20084;-60
2021/05/02 11:12:33;;;;;;;3.30;1.10;;;;;;;11.90;69.27;101793.09;3581336;40;20056;-60
2021/05/02 11:15:00;;;;;;;2.65;1.40;;;;;;;12.44;66.82;101798.75;3581938;40;20135;-59
2021/05/02 11:17:31;;;;;;;2.33;1.55;;;;;;;12.81;63.24;101790.31;3581713;40;20876;-62
2021/05/02 11:19:59;;;;;;;3.05;1.13;;;;;;;12.95;62.71;101792.69;3581629;40;20052;-60
2021/05/02 11:22:27;;;;;;;2.45;1.27;;;;;;;12.99;61.71;101790.63;3581107;40;20052;-60
2021/05/02 11:24:54;;;;;;;1.77;1.10;;;;;;;12.60;66.15;101810.00;3580502;40;20044;-60
2021/05/02 11:27:28;;;;;;;2.55;1.10;;;;;;;11.74;71.70;101800.69;3580688;40;20054;-61
2021/05/02 11:30:25;;;;;;;3.00;1.38;;;;;;;11.18;71.37;101810.34;3637706;22;20388;-61
2021/05/02 11:32:55;;;;;;;2.40;1.40;;;;;;;11.06;78.86;101811.28;3538907;40;20055;-59
2021/05/02 11:35:40;;;;;;;3.83;1.65;;;;;;;11.11;81.19;101809.09;3563480;40;20154;-61
2021/05/02 11:38:06;;;;;;;3.88;1.25;;;;;;;11.50;81.95;101809.72;3570165;40;20046;-59
2021/05/02 11:40:39;;;;;;;4.50;1.80;;;;;;;11.85;79.44;101810.63;3570970;40;20127;-59
2021/05/02 11:43:09;;;;;;;5.07;1.70;;;;;;;12.43;80.50;101811.38;3570446;40;20450;-60